createdAt,value
2019-05-12T00:03:27.680Z,98782.44
2019-05-12T00:08:33.934Z,98787.23
2019-05-12T00:13:40.512Z,98793.01
2019-05-12T00:18:48.357Z,98801.29
2019-05-12T00:24:13.841Z,98807.20
2019-05-12T00:29:20.372Z,98821.08
2019-05-12T00:34:28.863Z,98827.66
2019-05-12T00:39:35.421Z,98832.53
2019-05-12T00:44:42.047Z,98835.98
2019-05-12T00:49:50.289Z,98843.36
2019-05-12T00:54:58.651Z,98847.64
2019-05-12T01:00:08.728Z,98868.89
2019-05-12T01:05:17.696Z,98871.09
2019-05-12T01:10:24.478Z,98879.00
2019-05-12T01:15:31.101Z,98880.30
2019-05-12T01:20:38.881Z,98882.58
2019-05-12T01:25:47.817Z,98882.98
2019-05-12T01:30:58.174Z,98888.95
2019-05-12T01:36:04.575Z,98892.47
2019-05-12T01:41:11.211Z,98893.30
2019-05-12T01:46:18.168Z,98905.55
2019-05-12T01:51:25.140Z,98916.46
2019-05-12T01:56:31.599Z,98926.50
2019-05-12T02:01:38.851Z,98943.39
2019-05-12T02:06:45.783Z,98948.13
2019-05-12T02:11:52.396Z,98953.11
2019-05-12T02:16:58.988Z,98963.63
2019-05-12T02:22:08.282Z,98973.48
2019-05-12T02:27:14.150Z,98984.66
2019-05-12T02:32:25.267Z,98990.12
2019-05-12T02:37:30.218Z,98998.28
2019-05-12T02:42:37.263Z,99001.55
2019-05-12T02:47:45.597Z,98997.47
2019-05-12T02:52:54.585Z,99004.42
2019-05-12T02:58:04.924Z,99006.30
2019-05-12T03:03:14.663Z,99003.05
2019-05-12T03:08:25.581Z,99009.68
2019-05-12T03:13:34.578Z,99016.17
2019-05-12T03:18:40.699Z,99015.05
2019-05-12T03:23:47.339Z,99023.09
2019-05-12T03:28:55.608Z,99025.94
2019-05-12T03:34:08.182Z,99034.91
2019-05-12T03:39:10.845Z,99051.12
2019-05-12T03:44:18.460Z,99060.55
2019-05-12T03:49:24.856Z,99072.56
2019-05-12T03:54:34.728Z,99083.83
2019-05-12T03:59:39.754Z,99095.53
2019-05-12T04:04:46.265Z,99112.23
2019-05-12T04:09:54.513Z,99121.00
2019-05-12T04:15:04.817Z,99127.75
2019-05-12T04:20:09.424Z,99138.05
2019-05-12T04:25:16.234Z,99148.28
2019-05-12T04:30:25.078Z,99162.83
2019-05-12T04:35:34.534Z,99170.62
2019-05-12T04:40:39.541Z,99175.42
2019-05-12T04:45:46.007Z,99179.56
2019-05-12T04:50:54.851Z,99185.44
2019-05-12T04:56:10.801Z,99200.02
2019-05-12T05:01:10.035Z,99202.39
2019-05-12T05:06:16.570Z,99210.42
2019-05-12T05:11:25.034Z,99205.91
2019-05-12T05:16:34.359Z,99225.39
2019-05-12T05:21:39.640Z,99238.77
2019-05-12T05:26:46.263Z,99251.30
2019-05-12T05:31:53.411Z,99265.08
2019-05-12T05:37:01.642Z,99276.67
2019-05-12T05:42:08.333Z,99288.72
2019-05-12T05:47:14.797Z,99301.42
2019-05-12T05:52:26.562Z,99301.89
2019-05-12T05:57:29.932Z,99309.20
2019-05-12T06:02:40.493Z,99315.68
2019-05-12T06:07:46.028Z,99328.93
2019-05-12T06:12:54.254Z,99337.80
2019-05-12T06:18:03.332Z,99342.72
2019-05-12T06:23:09.212Z,99339.63
2019-05-12T06:28:15.761Z,99354.08
2019-05-12T06:33:31.335Z,99360.17
2019-05-12T06:38:35.558Z,99364.34
2019-05-12T06:43:42.375Z,99374.09
2019-05-12T06:48:47.810Z,99377.66
2019-05-12T06:53:54.409Z,99372.29
2019-05-12T06:59:07.142Z,99378.21
2019-05-12T07:04:10.420Z,99381.38
2019-05-12T07:09:25.100Z,99388.83
2019-05-12T07:14:27.190Z,99393.18
2019-05-12T07:19:33.888Z,99405.80
2019-05-12T07:24:50.229Z,99408.13
2019-05-12T07:29:50.127Z,99410.91
2019-05-12T07:34:56.803Z,99423.26
2019-05-12T07:40:05.344Z,99422.50
2019-05-12T07:45:20.113Z,99418.02
2019-05-12T07:50:24.858Z,99421.61
2019-05-12T07:55:29.575Z,99436.64
2019-05-12T08:00:36.076Z,99434.63
2019-05-12T08:05:43.947Z,99451.25
2019-05-12T08:10:53.521Z,99458.16
2019-05-12T08:15:58.819Z,99465.04
2019-05-12T08:21:05.451Z,99464.55
2019-05-12T08:26:18.391Z,99473.03
2019-05-12T08:31:23.487Z,99485.45
2019-05-12T08:36:35.490Z,99487.81
2019-05-12T08:41:44.272Z,99491.47
2019-05-12T08:46:53.454Z,99495.59
2019-05-12T08:52:00.435Z,99492.81
2019-05-12T08:57:07.166Z,99501.77
2019-05-12T09:02:15.502Z,99498.30
2019-05-12T09:07:24.264Z,99507.92
2019-05-12T09:12:30.913Z,99514.78
2019-05-12T09:17:49.069Z,99528.43
2019-05-12T09:22:46.227Z,99526.89
2019-05-12T09:27:54.238Z,99519.53
2019-05-12T09:33:04.088Z,99538.20
2019-05-12T09:38:20.389Z,99535.47
2019-05-12T09:43:19.310Z,99545.05
2019-05-12T09:48:25.891Z,99551.38
2019-05-12T09:53:34.101Z,99554.43
2019-05-12T09:58:40.560Z,99546.11
2019-05-12T10:03:47.295Z,99552.50
2019-05-12T10:08:54.947Z,99548.44
2019-05-12T10:14:06.604Z,99543.10
2019-05-12T10:19:10.181Z,99554.55
2019-05-12T10:24:16.876Z,99555.81
2019-05-12T10:29:29.324Z,99549.19
2019-05-12T10:34:38.128Z,99539.89
2019-05-12T10:39:41.198Z,99551.69
2019-05-12T10:44:47.735Z,99551.50
2019-05-12T10:49:54.578Z,99559.70
2019-05-12T10:55:01.159Z,99557.77
2019-05-12T11:00:10.156Z,99559.41
2019-05-12T11:05:21.121Z,99566.88
2019-05-12T11:10:25.187Z,99574.75
2019-05-12T11:15:33.949Z,99581.06
2019-05-12T11:20:40.414Z,99584.30
2019-05-12T11:25:50.491Z,99581.16
2019-05-12T11:30:57.151Z,99593.37
2019-05-12T11:36:04.364Z,99608.30
2019-05-12T11:41:16.160Z,99611.89
2019-05-12T11:46:19.590Z,99604.41
2019-05-12T11:51:30.250Z,99604.11
2019-05-12T11:56:34.910Z,99613.84
2019-05-12T12:01:47.492Z,99620.62
2019-05-12T12:06:49.939Z,99634.24
2019-05-12T12:12:05.552Z,99647.03
2019-05-12T12:17:06.982Z,99637.91
2019-05-12T12:22:14.650Z,99649.59
2019-05-12T12:27:23.457Z,99645.30
2019-05-12T12:32:30.328Z,99651.59
2019-05-12T12:37:36.988Z,99655.80
2019-05-12T12:42:47.103Z,99650.66
2019-05-12T12:47:53.937Z,99659.70
2019-05-12T12:53:00.391Z,99663.55
2019-05-12T12:58:07.060Z,99672.81
2019-05-12T13:03:14.347Z,99673.59
2019-05-12T13:08:24.022Z,99674.05
2019-05-12T13:13:29.819Z,99665.37
2019-05-12T13:18:36.561Z,99669.66
2019-05-12T13:23:45.280Z,99668.29
2019-05-12T13:28:53.189Z,99663.01
2019-05-12T13:33:59.938Z,99665.43
2019-05-12T13:39:11.362Z,99675.21
2019-05-12T13:44:16.871Z,99678.42
2019-05-12T13:49:24.460Z,99684.41
2019-05-12T13:54:31.206Z,99694.72
2019-05-12T13:59:37.838Z,99686.75
2019-05-12T14:04:44.511Z,99686.41
2019-05-12T14:09:51.080Z,99685.06
2019-05-12T14:14:57.657Z,99688.80
2019-05-12T14:20:09.439Z,99693.87
2019-05-12T14:25:15.251Z,99694.84
2019-05-12T14:30:21.581Z,99692.40
2019-05-12T14:35:32.431Z,99694.42
2019-05-12T14:40:36.556Z,99693.81
2019-05-12T14:45:44.017Z,99698.53
2019-05-12T14:50:50.855Z,99693.48
2019-05-12T14:55:57.656Z,99700.30
2019-05-12T15:01:04.343Z,99698.63
2019-05-12T15:06:10.907Z,99709.83
2019-05-12T15:11:17.489Z,99703.59
2019-05-12T15:16:24.078Z,99700.63
2019-05-12T15:21:31.428Z,99709.52
2019-05-12T15:26:38.281Z,99706.35
2019-05-12T15:31:53.447Z,99717.20
2019-05-12T15:36:56.070Z,99712.25
2019-05-12T15:42:03.496Z,99717.31
2019-05-12T15:47:10.129Z,99725.36
2019-05-12T15:52:16.610Z,99733.81
2019-05-12T15:57:24.464Z,99730.69
2019-05-12T16:02:31.323Z,99738.36
2019-05-12T16:07:39.555Z,99741.04
2019-05-12T16:12:46.518Z,99750.94
2019-05-12T16:17:54.066Z,99749.34
2019-05-12T16:23:04.079Z,99748.52
2019-05-12T16:28:17.203Z,99749.70
2019-05-12T16:33:20.795Z,99745.41
2019-05-12T16:38:27.713Z,99752.13
2019-05-12T16:43:35.355Z,99750.56
2019-05-12T16:48:48.233Z,99753.81
2019-05-12T16:59:17.027Z,99759.22
2019-05-12T17:04:20.926Z,99757.75
2019-05-12T17:09:29.546Z,99760.38
2019-05-12T17:14:47.979Z,99762.42
2019-05-12T17:19:46.212Z,99775.14
2019-05-12T17:24:53.768Z,99774.84
2019-05-12T17:30:00.574Z,99773.97
2019-05-12T17:35:10.201Z,99778.45
2019-05-12T17:40:20.929Z,99789.41
2019-05-12T17:45:27.697Z,99789.56
2019-05-12T17:50:34.709Z,99801.25
2019-05-12T17:55:42.588Z,99814.14
2019-05-12T18:00:51.834Z,99820.03
2019-05-12T18:05:57.894Z,99818.53
2019-05-12T18:11:04.582Z,99820.20
2019-05-12T18:16:16.718Z,99825.46
2019-05-12T18:21:21.897Z,99832.65
2019-05-12T18:26:27.836Z,99844.32
2019-05-12T18:31:34.673Z,99855.85
2019-05-12T18:36:41.151Z,99858.70
2019-05-12T18:41:49.026Z,99867.03
2019-05-12T18:46:55.734Z,99872.70
2019-05-12T18:52:03.952Z,99876.67
2019-05-12T18:57:10.838Z,99890.00
2019-05-12T19:02:23.176Z,99894.95
2019-05-12T19:07:39.449Z,99908.20
2019-05-12T19:12:35.650Z,99906.02
2019-05-12T19:17:43.593Z,99915.33
2019-05-12T19:22:57.403Z,99917.75
2019-05-12T19:28:05.941Z,99929.73
2019-05-12T19:33:10.778Z,99938.95
2019-05-12T19:38:16.141Z,99943.56
2019-05-12T19:43:23.758Z,99953.68
2019-05-12T19:48:35.203Z,99959.40
2019-05-12T19:53:38.927Z,99958.31
2019-05-12T19:58:46.027Z,99966.70
2019-05-12T20:03:55.684Z,99977.16
2019-05-12T20:09:09.927Z,99975.80
2019-05-12T20:14:10.005Z,99985.37
2019-05-12T20:19:19.875Z,99992.20
2019-05-12T20:24:26.040Z,99991.53
2019-05-12T20:29:33.889Z,100011.47
2019-05-12T20:34:49.090Z,100010.20
2019-05-12T20:39:51.250Z,100014.42
2019-05-12T20:45:02.634Z,100009.46
2019-05-12T20:50:08.813Z,100012.56
2019-05-12T20:55:15.447Z,100021.48
2019-05-12T21:00:24.313Z,100033.22
2019-05-12T21:05:30.675Z,100034.89
2019-05-12T21:10:37.139Z,100034.44
2019-05-12T21:15:45.816Z,100037.96
2019-05-12T21:20:54.693Z,100041.40
2019-05-12T21:26:00.832Z,100040.64
2019-05-12T21:31:07.500Z,100047.52
2019-05-12T21:36:15.443Z,100048.78
2019-05-12T21:41:24.437Z,100046.16
2019-05-12T21:46:30.601Z,100051.30
2019-05-12T21:51:37.161Z,100050.34
2019-05-12T21:56:49.027Z,100047.69
2019-05-12T22:01:53.411Z,100056.96
2019-05-12T22:07:00.064Z,100059.48
2019-05-12T22:12:06.876Z,100060.55
2019-05-12T22:17:13.693Z,100062.24
2019-05-12T22:22:25.712Z,100071.37
2019-05-12T22:27:30.937Z,100078.86
2019-05-12T22:32:36.891Z,100080.44
2019-05-12T22:37:45.054Z,100080.80
2019-05-12T22:42:56.995Z,100082.95
2019-05-12T22:48:03.655Z,100089.94
2019-05-12T22:53:09.476Z,100092.07
2019-05-12T22:58:20.704Z,100092.77
2019-05-12T23:03:24.519Z,100097.88
2019-05-12T23:08:33.254Z,100095.63
2019-05-12T23:13:42.743Z,100104.52
2019-05-12T23:18:47.635Z,100106.77
2019-05-12T23:23:57.429Z,100108.50
2019-05-12T23:29:04.248Z,100112.64
2019-05-12T23:34:12.357Z,100119.09
2019-05-12T23:39:19.013Z,100122.37
2019-05-12T23:44:25.571Z,100123.78
2019-05-12T23:49:33.632Z,100127.98
2019-05-12T23:54:40.388Z,100121.30
2019-05-12T23:59:46.910Z,100134.33
